Terminal Aerodrome Forecast
Issued by NWS

Home | Current Version | Previous Version | Text Only | Print | Product List | Glossary On
Versions: 1 2 3 4 5 6 7 8 9 10 11 12 13 14 15 16 17 18 19 20 21 22 23 24 25 26 27 28 29 30
000
FTUS41 KBOX 262335
TAFBAF
TAF
KBAF 262335Z 2700/2724 20010KT P6SM OVC120
     FM270200 20006KT P6SM OVC100
     FM270800 VRB03KT P6SM BKN030
     FM270900 VRB03KT 3SM BR BKN008
     FM271100 20006KT 3SM BR BKN010
     FM271300 20007KT P6SM BKN015
     FM271400 19007KT P6SM BKN050
     FM271800 20011KT P6SM BKN050=

USA.gov is the U.S. government's official web portal to all federal, state and local government web resources and services.